Fairpoint, Ohio
Current Conditions -  °F | °C
As of 8:53 PM on Sunday 25 Jan 2015 (Local Time) from KHLG Reporting Station
Light Snow Light Snow  
Wind Chill: 24°   Ceiling: 300
Heat Index: 32°   Visibility: 1mi
Dew Point: 30°   Wind: 9mph
Humidity: 92%   Direction: 40°NE
Pressure: 29.77"   Gusts: NA
Location:  40.12°N, 80.93°W
Report Text: KHLG 260153Z AUTO 04008KT 1SM R03/P6000FT -SN BR OVC003 00/M01 A2977 RMK AO2 SLP095 P0003 T00001011
Loading
Personal Weather Stations






























Interactive Weather Map New forecast layout! Learn more

10-Day Weather Forecast

Advertisements
Track Severe Weather on mobile